Time;durP1;ratioP1;P1;durP2;ratioP2;P2;SDS_P1;SDS_P2;PMS_P1;PMS_P2;Temp;Humidity;BMP_temperature;BMP_pressure;BME280_temperature;BME280_humidity;BME280_pressure;Samples;Min_cycle;Max_cycle;Signal;HPM_P1;HPM_P2
2022/11/02 00:00:39;;;;;;;8.25;1.85;;;12.90;99.90;;;;;;5050141;28;20367;-61
2022/11/02 00:03:05;;;;;;;5.13;1.27;;;12.90;99.90;;;;;;5044643;28;20122;-61
2022/11/02 00:05:31;;;;;;;6.47;1.40;;;12.80;99.90;;;;;;5028194;28;20100;-60
2022/11/02 00:07:57;;;;;;;5.25;1.50;;;12.80;99.90;;;;;;5030248;28;20045;-62
2022/11/02 00:10:23;;;;;;;8.77;2.08;;;12.80;99.90;;;;;;5050218;28;20120;-61
2022/11/02 00:12:50;;;;;;;11.65;2.30;;;12.80;99.90;;;;;;5042121;28;20034;-61
2022/11/02 00:15:16;;;;;;;12.80;2.55;;;12.80;99.90;;;;;;5050094;28;20448;-61
2022/11/02 00:17:48;;;;;;;8.52;2.20;;;12.80;99.90;;;;;;5043367;28;20142;-61
2022/11/02 00:20:16;;;;;;;11.40;2.80;;;12.80;99.90;;;;;;5049191;28;20040;-60
2022/11/02 00:22:43;;;;;;;;;;;12.80;99.90;;;;;;5049189;28;20390;-60
2022/11/02 00:25:11;;;;;;;11.25;2.28;;;12.70;99.90;;;;;;5046510;28;19925;-61
2022/11/02 00:27:38;;;;;;;10.23;2.20;;;12.70;99.90;;;;;;5041478;28;20038;-61
2022/11/02 00:30:05;;;;;;;12.27;2.83;;;12.70;99.90;;;;;;5038980;28;20094;-59
2022/11/02 00:32:30;;;;;;;8.13;2.17;;;12.70;99.90;;;;;;5047731;28;20049;-61
2022/11/02 00:34:56;;;;;;;15.98;2.53;;;12.70;99.90;;;;;;5026512;28;20168;-61
2022/11/02 00:37:21;;;;;;;11.93;2.50;;;12.70;99.90;;;;;;5043354;28;20034;-61
2022/11/02 00:39:48;;;;;;;10.93;2.30;;;12.70;99.90;;;;;;5050085;28;20045;-61
2022/11/02 00:42:13;;;;;;;8.85;2.05;;;12.70;99.90;;;;;;5044102;28;21133;-60
2022/11/02 00:44:39;;;;;;;10.32;2.15;;;12.80;99.90;;;;;;5034983;28;20045;-60
2022/11/02 00:47:04;;;;;;;10.82;2.40;;;12.80;99.90;;;;;;5024411;28;20143;-61
2022/11/02 00:49:30;;;;;;;10.98;2.28;;;12.80;99.90;;;;;;5045705;28;20059;-61
2022/11/02 00:51:56;;;;;;;9.18;2.72;;;12.80;99.90;;;;;;5041754;28;20037;-60
2022/11/02 00:54:21;;;;;;;10.90;2.67;;;12.90;99.90;;;;;;5047710;28;20068;-61
2022/11/02 00:56:47;;;;;;;13.57;2.47;;;12.90;99.90;;;;;;5043480;28;20037;-61
2022/11/02 00:59:12;;;;;;;21.95;2.92;;;12.90;99.90;;;;;;5027286;28;20041;-61
2022/11/02 01:01:38;;;;;;;8.85;2.10;;;12.90;99.90;;;;;;5046617;28;20033;-61
2022/11/02 01:04:03;;;;;;;9.95;2.17;;;13.00;99.90;;;;;;5027882;28;20494;-61
2022/11/02 01:06:29;;;;;;;9.55;2.50;;;13.00;99.90;;;;;;5037864;28;20037;-61
2022/11/02 01:08:55;;;;;;;10.38;2.13;;;13.00;99.90;;;;;;5044703;28;20076;-61
2022/11/02 01:11:22;;;;;;;14.32;2.55;;;13.00;99.90;;;;;;5048557;28;20510;-60
2022/11/02 01:13:50;;;;;;;11.40;2.45;;;13.00;99.90;;;;;;5025571;28;20076;-61
2022/11/02 01:16:15;;;;;;;12.75;2.45;;;13.00;99.90;;;;;;5040781;28;20128;-60
2022/11/02 01:18:42;;;;;;;8.00;2.28;;;13.00;99.90;;;;;;5042046;28;20530;-59
2022/11/02 01:21:08;;;;;;;14.20;2.30;;;13.00;99.90;;;;;;5038422;28;20123;-60
2022/11/02 01:23:35;;;;;;;9.10;2.33;;;13.00;99.90;;;;;;5039584;28;20095;-59
2022/11/02 01:26:06;;;;;;;10.02;2.08;;;13.00;99.90;;;;;;5031208;28;20128;-59
2022/11/02 01:28:32;;;;;;;11.85;2.65;;;13.00;99.90;;;;;;5039036;28;20033;-60
2022/11/02 01:30:59;;;;;;;13.23;2.40;;;13.00;99.90;;;;;;5042556;28;20407;-59
2022/11/02 01:33:26;;;;;;;10.88;2.08;;;13.00;99.90;;;;;;5043735;28;20128;-59
2022/11/02 01:35:52;;;;;;;12.73;2.20;;;13.00;99.90;;;;;;5044058;28;20124;-59
2022/11/02 01:38:18;;;;;;;10.55;2.65;;;12.90;99.90;;;;;;5042986;28;20069;-60
2022/11/02 01:40:43;;;;;;;8.02;2.08;;;12.90;99.90;;;;;;5023373;28;20462;-60
2022/11/02 01:43:22;;;;;;;13.27;2.47;;;13.00;99.90;;;;;;5020814;28;20037;-60
2022/11/02 01:46:12;;;;;;;8.90;2.33;;;12.90;99.90;;;;;;5029852;28;20501;-59
2022/11/02 01:48:59;;;;;;;11.10;2.80;;;12.90;99.90;;;;;;5043304;28;20049;-60
2022/11/02 01:51:42;;;;;;;10.98;2.45;;;12.90;99.90;;;;;;5043281;28;20052;-60
2022/11/02 01:54:20;;;;;;;11.70;2.63;;;12.90;99.90;;;;;;5043458;28;20406;-60
2022/11/02 01:56:50;;;;;;;13.30;2.45;;;12.90;99.90;;;;;;5038704;28;20045;-61
2022/11/02 01:59:26;;;;;;;13.02;2.45;;;12.80;99.90;;;;;;5039075;28;20043;-62
2022/11/02 02:01:53;;;;;;;8.02;2.20;;;12.80;99.90;;;;;;5041486;28;20410;-61
2022/11/02 02:04:21;;;;;;;6.00;1.83;;;12.80;99.90;;;;;;5040396;28;20451;-60
2022/11/02 02:06:48;;;;;;;10.50;2.03;;;12.80;99.90;;;;;;5020082;28;20036;-61
2022/11/02 02:09:14;;;;;;;12.20;2.28;;;12.80;99.90;;;;;;5041688;28;20505;-60
2022/11/02 02:11:40;;;;;;;9.38;1.88;;;12.80;99.90;;;;;;5039794;28;20033;-61
2022/11/02 02:14:14;;;;;;;11.63;2.20;;;12.90;99.90;;;;;;5034911;28;20047;-61
2022/11/02 02:16:45;;;;;;;8.45;1.80;;;12.90;99.90;;;;;;5042863;28;20049;-61
2022/11/02 02:19:29;;;;;;;8.60;1.90;;;12.80;99.90;;;;;;5047828;28;20048;-61
2022/11/02 02:22:03;;;;;;;8.93;2.15;;;12.80;99.90;;;;;;5039671;28;20603;-61
2022/11/02 02:24:55;;;;;;;7.50;1.65;;;12.80;99.90;;;;;;5017979;28;20046;-60
2022/11/02 02:27:28;;;;;;;11.32;2.40;;;12.80;99.90;;;;;;5040125;28;20071;-61
2022/11/02 02:30:08;;;;;;;10.15;2.30;;;12.90;99.90;;;;;;5041182;28;20038;-61
2022/11/02 02:32:33;;;;;;;6.45;1.67;;;12.80;99.90;;;;;;5043172;28;20045;-61
2022/11/02 02:35:14;;;;;;;8.75;1.95;;;12.70;99.90;;;;;;5047045;28;20120;-61
2022/11/02 02:38:01;;;;;;;7.97;1.80;;;12.70;99.90;;;;;;5038403;28;20045;-61
2022/11/02 02:40:50;;;;;;;6.18;1.50;;;12.60;99.90;;;;;;5040131;28;20539;-61
2022/11/02 02:43:39;;;;;;;9.50;1.90;;;12.60;99.90;;;;;;5032258;28;20136;-60
2022/11/02 02:46:11;;;;;;;7.78;1.60;;;12.50;99.90;;;;;;5038250;28;20459;-60
2022/11/02 02:48:40;;;;;;;6.97;1.70;;;12.50;99.90;;;;;;5024069;28;20128;-60
2022/11/02 02:51:11;;;;;;;4.22;1.42;;;12.40;99.90;;;;;;5038984;28;20045;-61
2022/11/02 02:53:42;;;;;;;5.72;1.58;;;12.50;99.90;;;;;;5041793;28;20379;-60
2022/11/02 02:56:10;;;;;;;5.43;1.30;;;12.30;99.90;;;;;;5045137;28;20168;-60
2022/11/02 02:58:48;;;;;;;7.25;1.35;;;12.30;99.90;;;;;;5044858;28;20434;-60
2022/11/02 03:01:15;;;;;;;5.55;1.17;;;12.20;99.90;;;;;;5034180;28;20450;-58
2022/11/02 03:03:42;;;;;;;4.60;1.33;;;12.20;99.90;;;;;;5041871;28;20029;-60
2022/11/02 03:06:08;;;;;;;9.57;2.08;;;12.20;99.90;;;;;;5017682;28;20080;-60
2022/11/02 03:08:37;;;;;;;5.90;1.50;;;12.10;99.90;;;;;;5041533;28;20465;-60
2022/11/02 03:11:17;;;;;;;4.38;1.27;;;12.10;99.90;;;;;;5045050;28;20049;-60
2022/11/02 03:14:27;;;;;;;3.50;1.25;;;12.10;99.90;;;;;;5047225;28;20037;-58
2022/11/02 03:17:07;;;;;;;4.53;1.00;;;12.00;99.90;;;;;;4978816;28;20082;-60
2022/11/02 03:19:49;;;;;;;2.95;0.80;;;11.90;99.90;;;;;;4972951;28;20109;-59
2022/11/02 03:22:33;;;;;;;3.22;0.63;;;11.80;99.90;;;;;;4973599;28;20504;-59
2022/11/02 03:25:24;;;;;;;4.45;0.90;;;11.70;99.90;;;;;;4964629;28;20510;-60
2022/11/02 03:27:58;;;;;;;4.60;1.10;;;;;;;;;;4987771;28;20570;-60
2022/11/02 03:30:28;;;;;;;4.78;1.10;;;11.30;99.90;;;;;;4981097;28;20039;-60
2022/11/02 03:33:08;;;;;;;3.33;1.10;;;;;;;;;;4980363;28;20400;-60
2022/11/02 03:36:07;;;;;;;3.92;1.02;;;11.50;99.90;;;;;;4980186;28;20501;-59
2022/11/02 03:38:56;;;;;;;3.85;0.98;;;11.20;99.90;;;;;;4976795;28;20586;-59
2022/11/02 03:41:24;;;;;;;6.45;1.40;;;11.20;99.90;;;;;;4976383;28;20041;-60
2022/11/02 03:43:56;;;;;;;3.30;1.00;;;11.10;99.90;;;;;;4970484;28;20511;-60
2022/11/02 03:46:22;;;;;;;5.28;1.05;;;11.20;99.90;;;;;;4979865;28;20063;-61
2022/11/02 03:48:49;;;;;;;2.63;0.70;;;11.10;99.90;;;;;;4989363;28;20129;-58
2022/11/02 03:51:18;;;;;;;5.33;0.93;;;;;;;;;;4985086;28;20085;-59
2022/11/02 03:54:05;;;;;;;5.10;1.13;;;11.00;99.90;;;;;;5025494;28;20322;-58
2022/11/02 03:56:38;;;;;;;6.50;1.33;;;11.00;99.90;;;;;;5029038;28;20045;-59
2022/11/02 03:59:04;;;;;;;8.98;1.33;;;11.00;99.90;;;;;;5028540;28;20080;-60
2022/11/02 04:01:35;;;;;;;4.95;1.20;;;11.00;99.90;;;;;;5026057;28;20069;-58
2022/11/02 04:04:03;;;;;;;5.55;1.30;;;11.00;99.90;;;;;;5009096;28;20558;-59
2022/11/02 04:06:29;;;;;;;5.20;1.25;;;11.00;99.90;;;;;;5028186;28;20049;-59
2022/11/02 04:08:55;;;;;;;4.97;1.10;;;11.00;99.90;;;;;;5032507;28;20038;-58
2022/11/02 04:19:26;;;;;;;6.95;1.27;;;11.00;99.90;;;;;;5027171;28;20045;-59
2022/11/02 04:19:34;;;;;;;6.65;1.42;;;11.00;99.90;;;;;;5027368;28;20411;-60
2022/11/02 04:27:28;;;;;;;5.90;1.48;;;11.10;99.90;;;;;;5028539;28;20041;-60
2022/11/02 04:29:54;;;;;;;7.60;2.70;;;11.00;99.90;;;;;;5031319;28;20502;-60
2022/11/02 04:35:05;;;;;;;4.60;1.60;;;11.00;99.90;;;;;;5021146;28;20446;-59
2022/11/02 04:40:15;;;;;;;7.57;1.50;;;11.00;99.90;;;;;;5022441;28;20046;-59
2022/11/02 04:42:45;;;;;;;6.22;1.23;;;11.00;99.90;;;;;;5025493;28;20448;-60
2022/11/02 04:45:11;;;;;;;5.15;1.55;;;11.00;99.90;;;;;;5022636;28;20044;-59
2022/11/02 04:47:36;;;;;;;9.40;1.65;;;11.00;99.90;;;;;;5023699;28;20419;-59
2022/11/02 04:50:02;;;;;;;5.78;1.58;;;11.00;99.90;;;;;;5025292;28;20053;-60
2022/11/02 04:52:28;;;;;;;8.57;1.85;;;10.90;99.90;;;;;;5027487;28;20139;-58
2022/11/02 04:54:53;;;;;;;6.90;2.10;;;10.90;99.90;;;;;;5030283;28;20120;-60
2022/11/02 04:57:19;;;;;;;11.35;2.03;;;10.90;99.90;;;;;;5015432;28;20038;-61
2022/11/02 04:59:45;;;;;;;8.88;1.90;;;10.90;99.90;;;;;;5029729;28;20041;-59
2022/11/02 05:02:10;;;;;;;7.90;1.50;;;10.90;99.90;;;;;;5026854;28;20426;-59
2022/11/02 05:04:36;;;;;;;6.20;1.40;;;10.90;99.90;;;;;;5027748;28;20041;-58
2022/11/02 05:07:05;;;;;;;7.18;1.30;;;10.90;99.90;;;;;;5027399;28;20041;-58
2022/11/02 05:09:30;;;;;;;6.82;1.60;;;10.90;99.90;;;;;;5028416;28;20406;-57
2022/11/02 05:11:56;;;;;;;7.97;2.13;;;10.90;99.90;;;;;;5025615;28;20038;-57
2022/11/02 05:14:22;;;;;;;8.95;1.85;;;10.90;99.90;;;;;;5029373;28;20110;-58
2022/11/02 05:16:47;;;;;;;9.15;2.03;;;10.90;99.90;;;;;;5026066;28;20518;-58
2022/11/02 05:19:13;;;;;;;7.60;1.73;;;10.90;99.90;;;;;;5028522;28;20458;-58
2022/11/02 05:21:38;;;;;;;8.32;2.08;;;11.00;99.90;;;;;;5030113;28;20125;-61
2022/11/02 05:24:05;;;;;;;10.07;1.70;;;11.00;99.90;;;;;;5025272;28;20045;-61
2022/11/02 05:26:30;;;;;;;13.00;2.20;;;11.10;99.90;;;;;;5020643;28;20045;-60
2022/11/02 05:28:56;;;;;;;11.73;2.05;;;11.10;99.90;;;;;;5025098;28;20099;-61
2022/11/02 05:31:21;;;;;;;12.32;2.30;;;11.10;99.90;;;;;;5022847;28;20112;-58
2022/11/02 05:33:47;;;;;;;9.68;1.80;;;11.10;99.90;;;;;;5025088;28;20041;-58
2022/11/02 05:36:12;;;;;;;10.85;2.20;;;11.20;99.90;;;;;;5025868;28;20132;-59
2022/11/02 05:38:38;;;;;;;10.68;2.10;;;11.30;99.90;;;;;;5025229;28;20426;-59
2022/11/02 05:41:04;;;;;;;10.02;1.70;;;11.30;99.90;;;;;;5024781;28;20040;-58
2022/11/02 05:43:30;;;;;;;10.40;2.10;;;11.30;99.90;;;;;;5021344;28;20044;-58
2022/11/02 05:45:58;;;;;;;14.43;2.92;;;11.30;99.90;;;;;;5022860;28;20064;-58
2022/11/02 05:48:25;;;;;;;13.35;2.25;;;11.30;99.90;;;;;;5023282;28;20045;-57
2022/11/02 05:50:55;;;;;;;13.40;2.07;;;11.30;99.90;;;;;;5039203;28;20351;-59
2022/11/02 05:53:21;;;;;;;8.65;1.80;;;11.20;99.90;;;;;;5044616;28;20077;-60
2022/11/02 05:55:47;;;;;;;12.45;2.50;;;11.20;99.90;;;;;;5049172;28;20087;-59
2022/11/02 05:58:12;;;;;;;10.68;2.00;;;11.20;99.90;;;;;;5044278;28;20128;-59
2022/11/02 06:00:39;;;;;;;12.27;2.42;;;11.20;99.90;;;;;;5025802;28;20106;-60
2022/11/02 06:03:05;;;;;;;7.68;1.85;;;11.20;99.90;;;;;;5025250;28;20055;-60
2022/11/02 06:05:30;;;;;;;11.55;2.83;;;11.30;99.90;;;;;;5042192;28;20037;-60
2022/11/02 06:07:58;;;;;;;12.02;2.53;;;11.30;99.90;;;;;;5044918;28;20039;-59
2022/11/02 06:10:24;;;;;;;9.77;2.10;;;11.30;99.90;;;;;;5048931;28;20039;-60
2022/11/02 06:12:58;;;;;;;10.07;2.30;;;11.30;99.90;;;;;;5044897;28;20132;-60
2022/11/02 06:15:23;;;;;;;10.18;2.20;;;11.40;99.90;;;;;;5046227;28;20482;-61
2022/11/02 06:17:50;;;;;;;14.63;2.47;;;11.30;99.90;;;;;;5041108;28;20129;-61
2022/11/02 06:20:16;;;;;;;11.55;2.70;;;11.30;99.90;;;;;;5041869;28;20413;-61
2022/11/02 06:22:42;;;;;;;12.32;2.78;;;11.20;99.90;;;;;;5049020;28;20091;-61
2022/11/02 06:25:09;;;;;;;12.90;2.83;;;11.10;99.90;;;;;;5046852;28;20090;-61
2022/11/02 06:27:35;;;;;;;12.38;2.60;;;11.10;99.90;;;;;;5044430;28;20222;-60
2022/11/02 06:30:01;;;;;;;12.02;2.67;;;11.00;99.90;;;;;;5050480;28;20033;-61
2022/11/02 06:32:27;;;;;;;14.23;2.85;;;11.00;99.90;;;;;;5042732;28;20124;-61
2022/11/02 06:34:53;;;;;;;9.88;2.35;;;11.00;99.90;;;;;;5046111;28;20116;-60
2022/11/02 06:37:19;;;;;;;13.82;2.40;;;10.90;99.90;;;;;;5047924;28;20247;-61
2022/11/02 06:39:44;;;;;;;14.50;3.05;;;10.90;99.90;;;;;;5046770;28;20060;-60
2022/11/02 06:42:10;;;;;;;11.95;2.53;;;10.80;99.90;;;;;;5038825;28;20494;-60
2022/11/02 06:44:36;;;;;;;11.77;2.40;;;10.80;99.90;;;;;;5045804;28;20120;-61
2022/11/02 06:47:01;;;;;;;11.38;2.60;;;10.80;99.90;;;;;;5042928;28;20410;-61
2022/11/02 06:49:27;;;;;;;15.63;2.75;;;10.70;99.90;;;;;;5037143;28;20192;-59
2022/11/02 06:51:52;;;;;;;11.07;2.42;;;10.70;99.90;;;;;;5045344;28;20051;-60
2022/11/02 06:54:18;;;;;;;13.35;2.60;;;10.70;99.90;;;;;;5042600;28;20033;-60
2022/11/02 06:56:43;;;;;;;10.85;2.92;;;10.70;99.90;;;;;;5040583;28;20090;-61
2022/11/02 06:59:09;;;;;;;11.98;2.53;;;10.80;99.90;;;;;;5027113;28;20179;-61
2022/11/02 07:01:35;;;;;;;13.27;2.53;;;10.90;99.90;;;;;;5051696;28;20607;-60
2022/11/02 07:04:03;;;;;;;12.40;2.75;;;10.90;99.90;;;;;;5046711;28;20056;-61
2022/11/02 07:06:29;;;;;;;12.70;2.17;;;11.00;99.90;;;;;;5045950;28;20049;-60
2022/11/02 07:08:54;;;;;;;16.08;2.70;;;11.00;99.90;;;;;;5043484;28;20053;-61
2022/11/02 07:11:20;;;;;;;10.48;2.45;;;11.00;99.90;;;;;;5049877;28;20044;-59
2022/11/02 07:13:46;;;;;;;10.98;2.17;;;11.00;99.90;;;;;;5050954;28;20120;-60
2022/11/02 07:16:12;;;;;;;9.15;2.20;;;10.90;99.90;;;;;;5030330;28;20049;-61
2022/11/02 07:18:37;;;;;;;15.45;2.53;;;11.00;99.90;;;;;;5040900;28;20044;-61
2022/11/02 07:21:03;;;;;;;12.10;2.65;;;11.00;99.90;;;;;;5045943;28;20064;-61
2022/11/02 07:23:29;;;;;;;14.25;2.63;;;11.10;99.90;;;;;;5041988;28;20090;-60
2022/11/02 07:25:55;;;;;;;14.25;2.67;;;11.20;99.90;;;;;;5043862;28;20099;-61
2022/11/02 07:28:20;;;;;;;11.93;2.40;;;11.30;99.90;;;;;;5043458;28;20120;-60
2022/11/02 07:30:46;;;;;;;12.02;2.47;;;11.40;99.90;;;;;;5051078;28;20065;-60
2022/11/02 07:33:12;;;;;;;13.70;2.58;;;;;;;;;;5046372;28;20041;-60
2022/11/02 07:35:38;;;;;;;13.43;2.83;;;11.50;99.90;;;;;;5043830;28;20514;-60
2022/11/02 07:38:05;;;;;;;10.05;2.60;;;11.60;99.90;;;;;;5029995;28;20045;-60
2022/11/02 07:40:33;;;;;;;12.38;2.35;;;11.70;99.90;;;;;;5045743;28;20130;-59
2022/11/02 07:42:59;;;;;;;11.63;2.35;;;11.80;99.90;;;;;;5032574;28;20044;-61
2022/11/02 07:45:27;;;;;;;10.60;2.25;;;11.90;99.90;;;;;;5038470;28;20041;-60
2022/11/02 07:47:53;;;;;;;;;;;12.00;99.90;;;;;;5049986;28;20041;-60
2022/11/02 07:50:21;;;;;;;14.00;2.58;;;12.00;99.90;;;;;;5044724;28;19921;-59
2022/11/02 07:52:49;;;;;;;8.55;2.30;;;12.10;99.90;;;;;;5045446;28;20037;-61
2022/11/02 07:55:15;;;;;;;;;;;12.10;99.90;;;;;;5039796;28;20072;-60
2022/11/02 07:57:42;;;;;;;12.95;2.30;;;12.10;99.90;;;;;;5044567;28;20011;-61
2022/11/02 08:00:09;;;;;;;11.07;2.47;;;12.10;99.90;;;;;;5031708;28;20095;-61
2022/11/02 08:02:35;;;;;;;14.23;2.42;;;12.20;99.90;;;;;;5054847;28;20659;-60
2022/11/02 08:05:00;;;;;;;11.65;2.15;;;12.20;99.90;;;;;;5051653;28;20033;-61
2022/11/02 08:07:26;;;;;;;8.20;1.92;;;12.20;99.90;;;;;;5051444;28;20040;-62
2022/11/02 08:09:51;;;;;;;11.20;2.38;;;12.20;99.90;;;;;;5045764;28;20367;-61
2022/11/02 08:12:17;;;;;;;9.88;2.00;;;12.20;99.90;;;;;;5041561;28;20050;-61
2022/11/02 08:14:42;;;;;;;8.43;1.90;;;12.20;99.90;;;;;;5047697;28;20065;-60
2022/11/02 08:17:08;;;;;;;8.05;1.63;;;12.20;99.90;;;;;;5044942;28;20559;-60
2022/11/02 08:19:33;;;;;;;9.15;1.85;;;12.20;99.90;;;;;;5025146;28;20068;-60
2022/11/02 08:21:59;;;;;;;7.25;1.80;;;12.30;99.90;;;;;;5042194;28;20037;-59
2022/11/02 08:24:25;;;;;;;10.00;1.80;;;12.30;99.90;;;;;;5047340;28;20045;-60
2022/11/02 08:26:50;;;;;;;9.85;1.73;;;12.40;99.90;;;;;;5048005;28;20033;-60
2022/11/02 08:29:16;;;;;;;8.68;1.63;;;12.40;99.90;;;;;;5043041;28;20091;-60
2022/11/02 08:31:41;;;;;;;9.63;2.05;;;12.40;99.90;;;;;;5042147;28;20072;-60
2022/11/02 08:34:07;;;;;;;11.27;2.15;;;12.30;99.90;;;;;;5047146;28;20033;-60
2022/11/02 08:36:35;;;;;;;9.80;1.90;;;12.30;99.90;;;;;;5041162;28;20045;-60
2022/11/02 08:39:01;;;;;;;9.13;2.10;;;12.40;99.90;;;;;;5041732;28;20505;-61
2022/11/02 08:41:26;;;;;;;11.45;1.98;;;12.50;99.90;;;;;;5042809;28;20080;-60
2022/11/02 08:43:52;;;;;;;9.75;1.90;;;12.70;99.90;;;;;;5022889;28;20119;-61
2022/11/02 08:46:17;;;;;;;8.77;2.17;;;12.70;99.90;;;;;;5050005;28;20067;-59
2022/11/02 08:48:44;;;;;;;8.65;1.83;;;12.70;99.90;;;;;;5040102;28;20083;-60
2022/11/02 08:51:09;;;;;;;8.02;1.45;;;12.60;99.90;;;;;;5047283;28;20099;-60
2022/11/02 08:53:35;;;;;;;10.25;2.22;;;12.60;99.90;;;;;;5039213;28;20052;-60
2022/11/02 08:56:01;;;;;;;8.80;1.95;;;12.70;99.90;;;;;;5034357;28;20124;-60
2022/11/02 08:58:26;;;;;;;8.25;1.55;;;12.70;99.90;;;;;;5042018;28;20470;-60
2022/11/02 09:00:53;;;;;;;8.73;2.08;;;12.80;99.90;;;;;;5043075;28;20075;-61
2022/11/02 09:03:19;;;;;;;9.93;1.52;;;13.00;99.90;;;;;;5048604;28;20086;-60
2022/11/02 09:05:46;;;;;;;11.32;2.10;;;13.10;99.90;;;;;;5044955;28;20053;-60
2022/11/02 09:08:15;;;;;;;12.30;1.70;;;13.30;99.90;;;;;;5043899;28;20045;-58
2022/11/02 09:10:41;;;;;;;7.88;1.60;;;13.40;99.90;;;;;;5029494;28;20045;-58
2022/11/02 09:13:11;;;;;;;10.98;1.88;;;13.50;99.90;;;;;;5024309;28;20482;-60
2022/11/02 09:15:37;;;;;;;7.68;1.58;;;13.60;99.90;;;;;;5039796;28;20098;-60
2022/11/02 09:18:04;;;;;;;8.20;1.50;;;13.70;99.90;;;;;;5043603;28;20037;-60
2022/11/02 09:20:31;;;;;;;8.07;2.08;;;13.80;99.90;;;;;;5048628;28;20128;-59
2022/11/02 09:22:56;;;;;;;7.38;1.63;;;13.90;99.90;;;;;;5045561;28;20383;-59
2022/11/02 09:25:22;;;;;;;12.50;2.10;;;13.70;99.90;;;;;;5041523;28;20041;-58
2022/11/02 09:27:53;;;;;;;7.82;1.50;;;13.70;99.90;;;;;;5045892;28;20036;-60
2022/11/02 09:30:19;;;;;;;8.20;1.75;;;13.50;99.90;;;;;;5025852;28;20062;-61
2022/11/02 09:32:55;;;;;;;8.63;2.13;;;13.50;99.90;;;;;;5043126;28;20079;-58
2022/11/02 09:35:21;;;;;;;9.35;1.65;;;13.40;99.90;;;;;;5045896;28;20391;-60
2022/11/02 09:37:47;;;;;;;8.55;1.50;;;13.40;99.90;;;;;;5022414;28;20036;-59
2022/11/02 09:40:15;;;;;;;8.02;1.88;;;13.40;99.90;;;;;;5031817;28;20405;-58
2022/11/02 09:42:43;;;;;;;;;;;13.60;99.90;;;;;;5044011;28;20044;-56
2022/11/02 09:45:15;;;;;;;8.43;1.42;;;13.80;99.90;;;;;;5041088;28;20282;-58
2022/11/02 09:47:47;;;;;;;9.35;1.60;;;13.90;99.90;;;;;;5048110;28;20033;-57
2022/11/02 09:50:17;;;;;;;6.20;1.60;;;13.90;99.90;;;;;;5042433;28;20058;-56
2022/11/02 09:52:49;;;;;;;10.93;1.75;;;13.90;99.90;;;;;;5047085;28;20143;-57
2022/11/02 09:55:20;;;;;;;10.77;1.92;;;13.70;99.90;;;;;;5040332;28;20053;-58
2022/11/02 09:57:48;;;;;;;7.30;1.58;;;13.60;99.90;;;;;;5039421;28;20037;-57
2022/11/02 10:00:17;;;;;;;6.88;1.60;;;13.60;99.90;;;;;;5029163;28;20041;-58
2022/11/02 10:03:08;;;;;;;9.95;1.90;;;13.70;99.90;;;;;;5052503;28;20127;-58
2022/11/02 10:05:46;;;;;;;8.13;1.70;;;13.60;99.90;;;;;;5046329;28;20037;-57
2022/11/02 10:08:19;;;;;;;9.95;1.83;;;13.70;99.90;;;;;;5057552;28;20064;-56
2022/11/02 10:11:17;;;;;;;6.93;1.65;;;13.80;99.90;;;;;;5053044;28;20082;-58
2022/11/02 10:14:24;;;;;;;8.25;1.88;;;13.90;99.90;;;;;;5037917;28;20041;-58
2022/11/02 10:17:03;;;;;;;10.95;1.80;;;13.90;99.90;;;;;;5027717;28;20086;-57
2022/11/02 10:19:32;;;;;;;10.98;1.58;;;14.00;99.90;;;;;;5052765;28;20048;-59
2022/11/02 10:21:58;;;;;;;8.57;1.63;;;14.10;99.90;;;;;;5052595;28;20536;-58
2022/11/02 10:24:42;;;;;;;8.65;1.77;;;14.20;99.90;;;;;;5049225;28;20048;-59
2022/11/02 10:27:19;;;;;;;7.25;1.52;;;14.20;99.90;;;;;;5050288;28;20169;-60
2022/11/02 10:29:54;;;;;;;7.10;1.80;;;14.30;99.90;;;;;;5052707;28;20045;-60
2022/11/02 10:32:19;;;;;;;6.78;1.40;;;14.30;99.90;;;;;;5021670;28;20518;-60
2022/11/02 10:34:45;;;;;;;6.85;1.50;;;14.40;99.90;;;;;;5054354;28;20132;-60
2022/11/02 10:37:23;;;;;;;9.52;1.33;;;14.50;99.90;;;;;;5035574;28;20083;-60
2022/11/02 10:40:14;;;;;;;6.40;1.50;;;14.60;99.90;;;;;;5056845;28;20053;-60
2022/11/02 10:43:23;;;;;;;6.30;1.60;;;14.80;99.90;;;;;;5056861;28;20125;-60
2022/11/02 10:46:01;;;;;;;6.82;1.60;;;14.90;99.90;;;;;;5049373;28;20051;-60
2022/11/02 10:48:49;;;;;;;7.20;1.55;;;14.90;99.90;;;;;;5055647;28;20115;-59
2022/11/02 10:51:16;;;;;;;8.48;1.55;;;15.00;99.90;;;;;;5056558;28;20049;-57
2022/11/02 10:53:44;;;;;;;6.87;1.63;;;15.10;99.90;;;;;;5053123;28;20037;-57
2022/11/02 10:56:12;;;;;;;;;;;15.00;99.90;;;;;;5054066;28;20044;-58
2022/11/02 10:58:44;;;;;;;7.07;1.90;;;15.00;99.90;;;;;;5056436;28;20374;-58
2022/11/02 11:01:11;;;;;;;7.85;1.42;;;15.00;99.90;;;;;;5056951;28;20773;-58
2022/11/02 11:03:54;;;;;;;7.32;1.33;;;15.10;99.90;;;;;;5055252;28;20482;-60
2022/11/02 11:06:21;;;;;;;5.47;1.52;;;15.00;99.90;;;;;;5051631;28;20171;-63
2022/11/02 11:08:52;;;;;;;9.02;1.67;;;15.00;99.90;;;;;;5048300;28;20041;-60
2022/11/02 11:11:24;;;;;;;10.65;2.10;;;15.00;99.90;;;;;;5047219;28;20059;-60
2022/11/02 11:14:02;;;;;;;5.80;1.52;;;14.80;99.90;;;;;;5046070;28;20049;-59
2022/11/02 11:16:49;;;;;;;7.22;1.63;;;14.70;99.90;;;;;;5034259;28;20057;-59
2022/11/02 11:19:34;;;;;;;7.93;1.65;;;14.70;99.90;;;;;;5048329;28;20757;-59
2022/11/02 11:22:01;;;;;;;7.80;1.23;;;14.50;99.90;;;;;;5046209;28;20498;-61
2022/11/02 11:24:34;;;;;;;5.90;1.67;;;14.40;99.90;;;;;;5024285;28;20569;-60
2022/11/02 11:27:11;;;;;;;8.25;1.50;;;14.30;99.90;;;;;;5049690;28;20037;-61
2022/11/02 11:29:39;;;;;;;;;;;14.30;99.90;;;;;;5043987;28;20037;-60
2022/11/02 11:32:22;;;;;;;7.13;1.60;;;14.30;99.90;;;;;;5041309;28;19921;-57
2022/11/02 11:34:59;;;;;;;8.68;1.75;;;14.40;99.90;;;;;;5045511;28;20089;-58
2022/11/02 11:37:25;;;;;;;6.53;1.55;;;14.40;99.90;;;;;;5045478;28;20045;-57
2022/11/02 11:40:04;;;;;;;7.88;1.75;;;14.20;99.90;;;;;;5041616;28;20052;-57
2022/11/02 11:42:34;;;;;;;6.53;1.95;;;13.90;99.90;;;;;;5043195;28;20041;-59
2022/11/02 11:45:26;;;;;;;6.90;1.70;;;13.90;99.90;;;;;;5020134;28;20135;-58
2022/11/02 11:48:03;;;;;;;7.38;1.40;;;13.90;99.90;;;;;;5038306;28;20049;-59
2022/11/02 11:50:29;;;;;;;7.72;1.42;;;14.10;99.90;;;;;;5040797;28;20057;-59
2022/11/02 11:53:24;;;;;;;8.73;1.88;;;14.00;99.90;;;;;;5037638;28;20041;-58
2022/11/02 11:55:52;;;;;;;13.38;2.20;;;14.20;99.90;;;;;;5040586;28;20045;-61
2022/11/02 11:58:24;;;;;;;12.15;2.17;;;14.30;99.90;;;;;;5042521;28;20048;-60
2022/11/02 12:01:11;;;;;;;6.15;1.60;;;14.40;99.90;;;;;;5046002;28;20549;-61
2022/11/02 12:03:59;;;;;;;9.55;1.80;;;14.50;99.90;;;;;;5047677;28;21359;-61
2022/11/02 12:07:02;;;;;;;6.97;1.40;;;14.40;99.90;;;;;;5043913;28;20033;-60
2022/11/02 12:09:45;;;;;;;7.25;1.98;;;14.40;99.90;;;;;;5039980;28;20501;-61
2022/11/02 12:12:19;;;;;;;9.10;1.60;;;14.30;99.90;;;;;;5044632;28;20045;-58
2022/11/02 12:15:04;;;;;;;7.57;1.70;;;14.20;99.90;;;;;;5035452;28;20050;-58
2022/11/02 12:18:17;;;;;;;8.48;1.85;;;14.20;99.90;;;;;;5037777;28;20045;-59
2022/11/02 12:20:52;;;;;;;7.03;1.85;;;14.10;99.90;;;;;;5029820;28;20068;-61
2022/11/02 12:23:49;;;;;;;6.00;1.35;;;14.10;99.90;;;;;;5038128;28;20040;-59
2022/11/02 12:26:43;;;;;;;4.30;1.45;;;14.20;99.90;;;;;;5027614;28;20098;-59
2022/11/02 12:29:41;;;;;;;7.55;1.60;;;14.50;99.90;;;;;;5044248;28;20048;-59
2022/11/02 12:32:15;;;;;;;5.63;1.33;;;14.70;99.90;;;;;;5045009;28;20041;-60
2022/11/02 12:35:05;;;;;;;4.80;1.20;;;14.80;99.90;;;;;;5048520;28;20090;-59
2022/11/02 12:38:02;;;;;;;5.80;1.60;;;14.70;99.90;;;;;;5041373;28;20145;-59
2022/11/02 12:40:42;;;;;;;7.43;1.70;;;14.50;99.90;;;;;;5046728;28;20052;-59
2022/11/02 12:43:21;;;;;;;5.45;1.30;;;14.40;99.90;;;;;;5041722;28;20064;-59
2022/11/02 12:45:51;;;;;;;7.18;1.83;;;14.40;99.90;;;;;;5028395;28;21069;-59
2022/11/02 12:48:46;;;;;;;5.47;1.50;;;14.40;99.90;;;;;;5043348;28;20456;-59
2022/11/02 12:51:18;;;;;;;9.88;1.80;;;14.20;99.90;;;;;;5046575;28;20394;-58
2022/11/02 12:53:55;;;;;;;7.43;1.98;;;14.10;99.90;;;;;;5044505;28;20072;-59
2022/11/02 12:56:30;;;;;;;7.28;1.55;;;14.10;99.90;;;;;;5046828;28;20045;-59
2022/11/02 12:58:57;;;;;;;5.10;1.38;;;14.10;99.90;;;;;;5045397;28;20124;-59
2022/11/02 13:01:36;;;;;;;7.60;1.40;;;13.90;99.90;;;;;;5024325;28;20045;-59
2022/11/02 13:04:19;;;;;;;7.57;1.63;;;14.00;99.90;;;;;;5044834;28;20057;-59
2022/11/02 13:06:51;;;;;;;6.60;1.58;;;14.10;99.90;;;;;;5049057;28;20403;-59
2022/11/02 13:09:27;;;;;;;7.00;1.80;;;13.90;99.90;;;;;;5046775;28;20076;-58
2022/11/02 13:12:02;;;;;;;5.55;1.25;;;14.00;99.90;;;;;;5043562;28;20084;-59
2022/11/02 13:14:38;;;;;;;8.70;1.33;;;14.20;99.90;;;;;;5040189;28;20068;-58
2022/11/02 13:17:34;;;;;;;7.60;1.38;;;14.30;99.90;;;;;;5036262;28;20053;-60
2022/11/02 13:20:06;;;;;;;9.13;1.65;;;14.50;99.90;;;;;;5045369;28;20040;-58
2022/11/02 13:22:34;;;;;;;7.35;1.83;;;14.60;99.90;;;;;;5027146;28;20142;-60